Meteo Giornale » Osservazioni meteo Italia » Bologna-Borgo Panigale

ore: 07:20 - Osservazioni Meteo Bologna-Borgo Panigale
Lat. 44° 32' N Lon. 11° 18' E Alt. 36 metri s.l.m.

molto_nuvoloso Europe/Rome

20 °C

Molto Nuvoloso

Temp. 24 Ore

20 °C

34 °C

Nord

5.5 Km/h

Dew point 16 °C

Umidità 77 %

Visibilità  10 Km

Il sole sorge alle ore 06:22

Il sole tramonta alle ore 20:13

Data e Ora Cielo e Fenomeni T °C DP °C Um. % Pres. hPa Vis. km Vento km/h
Oggi h: 07:20 molto_nuvoloso Molto Nuvoloso 20 16 77 1016 10 N 5.5
Oggi h: 06:50 molto_nuvoloso Molto Nuvoloso 20 16 77 1015 10 N 3.7
Oggi h: 06:20 molto_nuvoloso Molto Nuvoloso 20 16 77 1015 10 N 3.7
Oggi h: 05:50 molto_nuvoloso Molto Nuvoloso 20 16 77 1015 10 N 9.3
Oggi h: 05:20 molto_nuvoloso Molto Nuvoloso 21 16 73 1015 10 N 3.7
Oggi h: 03:50 nuvoloso Nuvoloso 21 15 68 1015 10 N 3.7
Oggi h: 02:50 nuvoloso Nuvoloso 21 15 68 1015 10 NE 13
Oggi h: 01:50 sereno Sereno 21 13 60 1014 10 N/NO 7.4
Oggi h: 01:20 sereno Sereno 22 13 56 1013 10 N 1.8
Oggi h: 00:50 sereno Sereno 21 13 60 1013 10 N 3.7
Oggi h: 00:20 sereno Sereno 23 13 53 1013 10 N/NE 9.3
Ieri h: 23:50 sereno Sereno 23 15 60 1012 10 N/NE 20.3
Ieri h: 23:20 sereno Sereno 26 10 36 1011 10 O 13
Ieri h: 22:50 sereno Sereno 27 13 42 1010 10 O 7.4
Ieri h: 22:20 poco_nuvoloso Poco Nuvoloso 28 13 39 1010 10 S/SO 18.5
Ieri h: 21:50 poco_nuvoloso Poco Nuvoloso 28 14 42 1010 10 S/SO 9.3
Ieri h: 21:20 poco_nuvoloso Poco Nuvoloso 29 15 42 1010 10 N 5.5
Ieri h: 20:50 poco_nuvoloso Poco Nuvoloso 28 17 51 1010 10 N 1.8
Ieri h: 20:20 poco_nuvoloso Poco Nuvoloso 31 14 35 1010 10 O 11.1
Ieri h: 19:50 poco_nuvoloso Poco Nuvoloso 31 16 40 1009 10 N 9.3
Ieri h: 19:20 nuvoloso Nuvoloso 32 15 35 1009 10 N 5.5
Ieri h: 18:50 nuvoloso Nuvoloso 33 15 33 1010 10 N 3.7
Ieri h: 18:20 poco_nuvoloso Poco Nuvoloso 33 15 33 1010 10 N 5.5
Ieri h: 17:50 poco_nuvoloso Poco Nuvoloso 33 15 33 1010 10 E/NE 7.4
Ieri h: 17:20 poco_nuvoloso Poco Nuvoloso 34 15 32 1010 10 N 3.7
Ieri h: 16:50 poco_nuvoloso Poco Nuvoloso 33 15 33 1011 10 N 5.5
Ieri h: 16:20 poco_nuvoloso Poco Nuvoloso 33 15 33 1011 10 N 7.4
Ieri h: 15:50 poco_nuvoloso Poco Nuvoloso 33 15 33 1011 10 N 9.3
Ieri h: 15:20 poco_nuvoloso Poco Nuvoloso 33 15 33 1011 10 N/NE 11.1
Ieri h: 14:50 poco_nuvoloso Poco Nuvoloso 33 15 33 1011 10 N 9.3
Ieri h: 14:20 poco_nuvoloso Poco Nuvoloso 33 15 33 1012 10 N 9.3
Ieri h: 13:50 poco_nuvoloso Poco Nuvoloso 32 15 35 1012 10 NE 9.3
Ieri h: 13:20 poco_nuvoloso Poco Nuvoloso 32 15 35 1012 10 N 13
Ieri h: 12:50 poco_nuvoloso Poco Nuvoloso 32 15 35 1012 10 N/NE 14.8
Ieri h: 12:20 poco_nuvoloso Poco Nuvoloso 31 14 35 1012 10 N 14.8
Ieri h: 11:50 poco_nuvoloso Poco Nuvoloso 31 15 37 1012 10 N/NE 13
Ieri h: 11:20 poco_nuvoloso Poco Nuvoloso 31 14 35 1013 10 N 7.4
Ieri h: 10:50 poco_nuvoloso Poco Nuvoloso 30 15 40 1013 10 N 7.4
Ieri h: 10:20 nuvoloso Nuvoloso 29 14 39 1013 10 N 5.5
Ieri h: 09:50 nuvoloso Nuvoloso 27 16 50 1013 10 N 3.7
Ieri h: 09:20 nuvoloso Nuvoloso 26 15 50 1013 10 SO 7.4
Ieri h: 08:50 coperto_pioggia Pioviggine Leggera 25 15 53 1012 10 SO 9.3
Ieri h: 08:20 nuvoloso Nuvoloso 24 14 53 1013 10 O 11.1
Ieri h: 07:50 nuvoloso Nuvoloso 24 13 50 1013 10 O 7.4